createdAt,value
2018-02-24T00:00:19.952Z,-1.51
2018-02-24T00:01:29.402Z,-1.63
2018-02-24T00:02:39.396Z,-1.61
2018-02-24T00:03:49.388Z,-1.61
2018-02-24T00:04:59.119Z,-1.61
2018-02-24T00:06:09.110Z,-1.66
2018-02-24T00:07:18.837Z,-1.71
2018-02-24T00:08:28.827Z,-1.71
2018-02-24T00:09:38.562Z,-1.78
2018-02-24T00:10:48.553Z,-1.79
2018-02-24T00:11:58.545Z,-1.71
2018-02-24T00:13:08.062Z,-1.86
2018-02-24T00:14:18.056Z,-1.81
2018-02-24T00:15:28.043Z,-1.81
2018-02-24T00:16:38.033Z,-1.87
2018-02-24T00:17:47.756Z,-1.9
2018-02-24T00:18:57.479Z,-1.93
2018-02-24T00:20:07.487Z,-2
2018-02-24T00:21:17.209Z,-1.99
2018-02-24T00:22:26.974Z,-2
2018-02-24T00:23:36.703Z,-2.04
2018-02-24T00:24:46.163Z,-2.02
2018-02-24T00:25:56.162Z,-2.04
2018-02-24T00:27:06.153Z,-2.15
2018-02-24T00:28:16.145Z,-2.2
2018-02-24T00:29:26.143Z,-2.2
2018-02-24T00:30:36.168Z,-2.22
2018-02-24T00:31:46.156Z,-2.17
2018-02-24T00:32:55.616Z,-2.32
2018-02-24T00:34:05.605Z,-2.2
2018-02-24T00:35:15.602Z,-2.33
2018-02-24T00:36:25.588Z,-2.37
2018-02-24T00:37:35.310Z,-2.28
2018-02-24T00:38:45.037Z,-2.36
2018-02-24T00:39:55.025Z,-2.33
2018-02-24T00:41:05.013Z,-2.47
2018-02-24T00:42:15.066Z,-2.45
2018-02-24T00:43:24.823Z,-2.4
2018-02-24T00:44:34.274Z,-2.44
2018-02-24T00:45:44.258Z,-2.37
2018-02-24T00:46:54.247Z,-2.4
2018-02-24T00:48:04.234Z,-2.4
2018-02-24T00:49:13.955Z,-2.45
2018-02-24T00:50:23.940Z,-2.44
2018-02-24T00:51:33.668Z,-2.42
2018-02-24T00:52:43.655Z,-2.45
2018-02-24T00:53:53.376Z,-2.51
2018-02-24T00:55:03.378Z,-2.5
2018-02-24T00:56:13.099Z,-2.52
2018-02-24T00:57:23.085Z,-2.5
2018-02-24T00:58:32.818Z,-2.57
2018-02-24T00:59:42.540Z,-2.51
2018-02-24T01:00:52.586Z,-2.57
2018-02-24T01:02:02.308Z,-2.57
2018-02-24T01:03:12.307Z,-2.57
2018-02-24T01:04:22.307Z,-2.55
2018-02-24T01:05:32.346Z,-2.55
2018-02-24T01:06:42.462Z,-2.54
2018-02-24T01:07:52.457Z,-2.51
2018-02-24T01:09:02.449Z,-2.52
2018-02-24T01:10:12.444Z,-2.45
2018-02-24T01:11:22.449Z,-2.47
2018-02-24T01:12:32.546Z,-2.37
2018-02-24T01:13:42.266Z,-2.42
2018-02-24T01:14:52.022Z,-2.44
2018-02-24T01:16:01.745Z,-2.48
2018-02-24T01:17:11.483Z,-2.4
2018-02-24T01:18:21.569Z,-2.48
2018-02-24T01:19:31.288Z,-2.44
2018-02-24T01:20:41.278Z,-2.39
2018-02-24T01:21:51.266Z,-2.42
2018-02-24T01:23:01.258Z,-2.48
2018-02-24T01:24:11.250Z,-2.42
2018-02-24T01:25:20.708Z,-2.39
2018-02-24T01:26:30.697Z,-2.34
2018-02-24T01:27:40.423Z,-2.34
2018-02-24T01:28:50.412Z,-2.45
2018-02-24T01:30:00.411Z,-2.36
2018-02-24T01:31:10.145Z,-2.39
2018-02-24T01:32:20.139Z,-2.4
2018-02-24T01:33:30.131Z,-2.45
2018-02-24T01:34:40.136Z,-2.48
2018-02-24T01:35:50.223Z,-2.42
2018-02-24T01:37:00.221Z,-2.44
2018-02-24T01:38:09.679Z,-2.48
2018-02-24T01:39:19.675Z,-2.37
2018-02-24T01:40:29.393Z,-2.39
2018-02-24T01:41:39.386Z,-2.42
2018-02-24T01:42:49.381Z,-2.39
2018-02-24T01:43:59.372Z,-2.44
2018-02-24T01:45:09.369Z,-2.51
2018-02-24T01:46:19.369Z,-2.34
2018-02-24T01:47:29.359Z,-2.4
2018-02-24T01:48:39.088Z,-2.37
2018-02-24T01:49:49.091Z,-2.42
2018-02-24T01:50:59.143Z,-2.36
2018-02-24T01:52:08.864Z,-2.39
2018-02-24T01:53:18.593Z,-2.4
2018-02-24T01:54:28.322Z,-2.45
2018-02-24T01:55:38.325Z,-2.51
2018-02-24T01:56:48.312Z,-2.48
2018-02-24T01:57:58.052Z,-2.37
2018-02-24T01:59:08.043Z,-2.4
2018-02-24T02:00:18.031Z,-2.39
2018-02-24T02:01:28.032Z,-2.47
2018-02-24T02:02:38.043Z,-2.45
2018-02-24T02:03:48.033Z,-2.36
2018-02-24T02:04:57.769Z,-2.4
2018-02-24T02:06:07.509Z,-2.37
2018-02-24T02:07:17.242Z,-2.42
2018-02-24T02:08:27.231Z,-2.37
2018-02-24T02:09:37.226Z,-2.34
2018-02-24T02:10:46.955Z,-2.37
2018-02-24T02:11:56.412Z,-2.4
2018-02-24T02:13:06.142Z,-2.42
2018-02-24T02:14:16.147Z,-2.4
2018-02-24T02:15:26.141Z,-2.39
2018-02-24T02:16:35.913Z,-2.45
2018-02-24T02:17:45.637Z,-2.55
2018-02-24T02:18:55.355Z,-2.52
2018-02-24T02:20:05.078Z,-2.51
2018-02-24T02:21:14.816Z,-2.42
2018-02-24T02:22:24.809Z,-2.51
2018-02-24T02:23:34.812Z,-2.5
2018-02-24T02:24:44.796Z,-2.51
2018-02-24T02:25:54.792Z,-2.54
2018-02-24T02:27:04.796Z,-2.57
2018-02-24T02:28:14.787Z,-2.58
2018-02-24T02:29:24.246Z,-2.58
2018-02-24T02:30:34.240Z,-2.55
2018-02-24T02:31:44.245Z,-2.57
2018-02-24T02:32:54.244Z,-2.51
2018-02-24T02:34:04.345Z,-2.51
2018-02-24T02:35:14.088Z,-2.54
2018-02-24T02:36:24.098Z,-2.58
2018-02-24T02:37:33.841Z,-2.54
2018-02-24T02:38:43.860Z,-2.63
2018-02-24T02:39:53.862Z,-2.69
2018-02-24T02:41:03.873Z,-2.73
2018-02-24T02:42:13.069Z,-2.73
2018-02-24T02:43:23.068Z,-2.68
2018-02-24T02:44:33.074Z,-2.8
2018-02-24T02:45:43.085Z,-2.72
2018-02-24T02:46:53.102Z,-2.87
2018-02-24T02:48:02.899Z,-2.86
2018-02-24T02:49:12.633Z,-2.87
2018-02-24T02:50:22.628Z,-2.98
2018-02-24T02:51:32.629Z,-3.01
2018-02-24T02:52:42.627Z,-2.96
2018-02-24T02:53:52.362Z,-2.98
2018-02-24T02:55:02.365Z,-3.11
2018-02-24T02:56:12.354Z,-3.12
2018-02-24T02:57:22.348Z,-3.02
2018-02-24T02:58:32.359Z,-3.01
2018-02-24T02:59:42.089Z,-3.11
2018-02-24T03:00:52.090Z,-3.05
2018-02-24T03:02:02.110Z,-3.17
2018-02-24T03:03:12.115Z,-3.09
2018-02-24T03:04:22.110Z,-3.15
2018-02-24T03:05:31.843Z,-3.12
2018-02-24T03:06:41.306Z,-3.12
2018-02-24T03:07:51.302Z,-3.17
2018-02-24T03:09:01.031Z,-3.2
2018-02-24T03:10:11.053Z,-3.09
2018-02-24T03:11:21.043Z,-3.17
2018-02-24T03:12:31.035Z,-3.17
2018-02-24T03:13:40.760Z,-3.11
2018-02-24T03:14:50.744Z,-3.15
2018-02-24T03:16:00.467Z,-3.05
2018-02-24T03:17:10.189Z,-3.07
2018-02-24T03:18:20.039Z,-3.07
2018-02-24T03:19:30.027Z,-3.04
2018-02-24T03:20:39.763Z,-3.04
2018-02-24T03:21:49.489Z,-3.01
2018-02-24T03:22:59.212Z,-3.01
2018-02-24T03:24:09.202Z,-2.99
2018-02-24T03:25:19.188Z,-2.96
2018-02-24T03:26:29.177Z,-3.01
2018-02-24T03:27:39.175Z,-2.99
2018-02-24T03:28:49.168Z,-2.96
2018-02-24T03:29:59.153Z,-3.05
2018-02-24T03:31:09.169Z,-3.01
2018-02-24T03:32:18.901Z,-3.05
2018-02-24T03:33:28.894Z,-3.14
2018-02-24T03:34:38.887Z,-3.04
2018-02-24T03:35:48.879Z,-3.08
2018-02-24T03:36:58.869Z,-3.04
2018-02-24T03:38:08.593Z,-3.05
2018-02-24T03:39:18.605Z,-3.05
2018-02-24T03:40:28.599Z,-3.04
2018-02-24T03:41:38.582Z,-3.07
2018-02-24T03:42:48.570Z,-3.05
2018-02-24T03:43:58.557Z,-3.05
2018-02-24T03:45:08.553Z,-3.2
2018-02-24T03:46:18.540Z,-3.14
2018-02-24T03:47:28.539Z,-3.22
2018-02-24T03:48:38.528Z,-3.27
2018-02-24T03:49:48.257Z,-3.3
2018-02-24T03:50:58.244Z,-3.22
2018-02-24T03:52:07.968Z,-3.27
2018-02-24T03:53:17.963Z,-3.26
2018-02-24T03:54:27.952Z,-3.23
2018-02-24T03:55:37.964Z,-3.2
2018-02-24T03:56:47.952Z,-3.29
2018-02-24T03:57:57.946Z,-3.27
2018-02-24T03:59:07.671Z,-3.26
2018-02-24T04:00:17.659Z,-3.27
2018-02-24T04:04:07.911Z,-3.14
2018-02-24T04:05:17.906Z,-3.15
2018-02-24T04:06:27.897Z,-3.08
2018-02-24T04:07:37.894Z,-3.07
2018-02-24T04:08:47.885Z,-3.08
2018-02-24T04:09:57.613Z,-3.12
2018-02-24T04:11:07.072Z,-3.11
2018-02-24T04:12:17.070Z,-3.07
2018-02-24T04:13:27.065Z,-3.05
2018-02-24T04:14:37.060Z,-3.11
2018-02-24T04:15:46.788Z,-3.17
2018-02-24T04:16:56.512Z,-3.19
2018-02-24T04:18:06.234Z,-3.17
2018-02-24T04:19:16.224Z,-3.07
2018-02-24T04:20:25.942Z,-3.08
2018-02-24T04:21:36.126Z,-3.04
2018-02-24T04:22:46.118Z,-3.17
2018-02-24T04:23:56.116Z,-3.05
2018-02-24T04:25:06.108Z,-3.04
2018-02-24T04:26:15.833Z,-3.12
2018-02-24T04:27:25.837Z,-3.08
2018-02-24T04:28:35.832Z,-3.15
2018-02-24T04:29:45.826Z,-3.14
2018-02-24T04:30:55.819Z,-3.14
2018-02-24T04:32:05.815Z,-3.11
2018-02-24T04:33:15.806Z,-3.17
2018-02-24T04:34:25.264Z,-3.17
2018-02-24T04:35:35.253Z,-3.15
2018-02-24T04:36:44.709Z,-3.14
2018-02-24T04:37:54.701Z,-3.07
2018-02-24T04:39:04.693Z,-3.12
2018-02-24T04:40:14.687Z,-3.15
2018-02-24T04:41:24.681Z,-3.07
2018-02-24T04:42:34.399Z,-3.01
2018-02-24T04:43:43.856Z,-2.98
2018-02-24T04:44:53.943Z,-2.91
2018-02-24T04:46:03.939Z,-3.01
2018-02-24T04:47:13.659Z,-3.01
2018-02-24T04:48:23.655Z,-3.05
2018-02-24T04:49:33.382Z,-3.09
2018-02-24T04:50:43.107Z,-3.15
2018-02-24T04:51:53.095Z,-3.23
2018-02-24T04:53:03.094Z,-3.14
2018-02-24T04:54:13.079Z,-3.12
2018-02-24T04:55:23.067Z,-3.08
2018-02-24T04:56:33.155Z,-3.27
2018-02-24T04:57:43.141Z,-3.23
2018-02-24T04:58:52.861Z,-3.37
2018-02-24T05:00:02.860Z,-3.38
2018-02-24T05:01:12.319Z,-3.43
2018-02-24T05:02:22.049Z,-3.58
2018-02-24T05:03:32.034Z,-3.62
2018-02-24T05:04:42.026Z,-3.59
2018-02-24T05:05:52.011Z,-3.64
2018-02-24T05:07:02.005Z,-3.65
2018-02-24T05:08:11.792Z,-3.69
2018-02-24T05:09:21.787Z,-3.66
2018-02-24T05:10:31.776Z,-3.69
2018-02-24T05:11:41.766Z,-3.71
2018-02-24T05:12:51.757Z,-3.71
2018-02-24T05:14:01.743Z,-3.69
2018-02-24T05:15:11.740Z,-3.74
2018-02-24T05:16:21.723Z,-3.69
2018-02-24T05:17:31.719Z,-3.74
2018-02-24T05:18:41.177Z,-3.62
2018-02-24T05:19:51.171Z,-3.64
2018-02-24T05:21:01.160Z,-3.69
2018-02-24T05:22:10.883Z,-3.68
2018-02-24T05:23:20.873Z,-3.66
2018-02-24T05:24:30.867Z,-3.77
2018-02-24T05:25:40.862Z,-3.9
2018-02-24T05:26:50.862Z,-3.84
2018-02-24T05:28:00.872Z,-3.88
2018-02-24T05:29:10.609Z,-3.95
2018-02-24T05:30:20.609Z,-3.96
2018-02-24T05:31:30.604Z,-4.01
2018-02-24T05:32:40.330Z,-4.01
2018-02-24T05:33:50.056Z,-4.01
2018-02-24T05:35:00.046Z,-3.91
2018-02-24T05:36:10.040Z,-4.04
2018-02-24T05:37:20.034Z,-4.02
2018-02-24T05:38:29.751Z,-3.95
2018-02-24T05:39:39.734Z,-3.98
2018-02-24T05:40:49.720Z,-3.96
2018-02-24T05:41:59.706Z,-4.06
2018-02-24T05:43:09.696Z,-4.01
2018-02-24T05:44:19.687Z,-4.01
2018-02-24T05:45:29.674Z,-4.05
2018-02-24T05:46:39.677Z,-4.05
2018-02-24T05:47:49.139Z,-4.13
2018-02-24T05:48:59.134Z,-4.09
2018-02-24T05:50:09.128Z,-4.05
2018-02-24T05:51:18.853Z,-4.06
2018-02-24T05:52:28.853Z,-4.12
2018-02-24T05:53:38.845Z,-4.2
2018-02-24T05:54:48.832Z,-4.2
2018-02-24T05:55:58.553Z,-4.16
2018-02-24T05:57:08.274Z,-4.19
2018-02-24T05:58:17.991Z,-4.2
2018-02-24T05:59:27.983Z,-4.2
2018-02-24T06:00:37.967Z,-4.17
2018-02-24T06:01:47.950Z,-4.2
2018-02-24T06:02:57.946Z,-4.13
2018-02-24T06:04:07.666Z,-4.17
2018-02-24T06:05:17.668Z,-4.23
2018-02-24T06:06:27.656Z,-4.17
2018-02-24T06:07:37.793Z,-4.23
2018-02-24T06:08:47.808Z,-4.22
2018-02-24T06:09:57.798Z,-4.17
2018-02-24T06:11:07.537Z,-4.22
2018-02-24T06:12:17.263Z,-4.19
2018-02-24T06:13:27.302Z,-4.26
2018-02-24T06:14:37.289Z,-4.22
2018-02-24T06:15:47.278Z,-4.24
2018-02-24T06:16:57.391Z,-4.35
2018-02-24T06:18:07.378Z,-4.33
2018-02-24T06:19:17.373Z,-4.31
2018-02-24T06:20:27.364Z,-4.34
2018-02-24T06:21:37.349Z,-4.34
2018-02-24T06:22:47.334Z,-4.3
2018-02-24T06:23:57.331Z,-4.26
2018-02-24T06:25:07.327Z,-4.33
2018-02-24T06:26:17.061Z,-4.31
2018-02-24T06:27:26.787Z,-4.37
2018-02-24T06:28:36.814Z,-4.34
2018-02-24T06:29:46.799Z,-4.34
2018-02-24T06:30:56.792Z,-4.33
2018-02-24T06:32:06.246Z,-4.26
2018-02-24T06:33:15.965Z,-4.27
2018-02-24T06:34:25.682Z,-4.23
2018-02-24T06:35:35.678Z,-4.3
2018-02-24T06:36:45.675Z,-4.33
2018-02-24T06:37:55.397Z,-4.27
2018-02-24T06:39:04.852Z,-4.27
2018-02-24T06:40:14.845Z,-4.35
2018-02-24T06:41:24.834Z,-4.41
2018-02-24T06:42:34.827Z,-4.31
2018-02-24T06:43:44.876Z,-4.34
2018-02-24T06:44:54.598Z,-4.37
2018-02-24T06:46:04.591Z,-4.45
2018-02-24T06:47:14.314Z,-4.42
2018-02-24T06:48:24.305Z,-4.42
2018-02-24T06:49:34.292Z,-4.41
2018-02-24T06:50:44.276Z,-4.38
2018-02-24T06:51:54.264Z,-4.42
2018-02-24T06:53:04.247Z,-4.38
2018-02-24T06:54:14.270Z,-4.41
2018-02-24T06:55:24.000Z,-4.38
2018-02-24T06:56:33.724Z,-4.41
2018-02-24T06:57:43.445Z,-4.41
2018-02-24T06:58:53.433Z,-4.45
2018-02-24T07:00:03.431Z,-4.44
2018-02-24T07:01:13.427Z,-4.49
2018-02-24T07:02:23.463Z,-4.44
2018-02-24T07:03:33.191Z,-4.42
2018-02-24T07:04:43.536Z,-4.44
2018-02-24T07:05:53.521Z,-4.44
2018-02-24T07:07:03.514Z,-4.49
2018-02-24T07:08:13.236Z,-4.44
2018-02-24T07:09:23.224Z,-4.4
2018-02-24T07:10:32.684Z,-4.4
2018-02-24T07:11:42.408Z,-4.44
2018-02-24T07:12:52.407Z,-4.45
2018-02-24T07:14:02.504Z,-4.44
2018-02-24T07:15:12.230Z,-4.41
2018-02-24T07:16:22.221Z,-4.4
2018-02-24T07:17:32.214Z,-4.44
2018-02-24T07:18:42.211Z,-4.33
2018-02-24T07:19:52.206Z,-4.33
2018-02-24T07:21:02.194Z,-4.4
2018-02-24T07:22:11.915Z,-4.4
2018-02-24T07:23:21.906Z,-4.42
2018-02-24T07:24:31.626Z,-4.4
2018-02-24T07:25:41.351Z,-4.42
2018-02-24T07:26:51.338Z,-4.33
2018-02-24T07:28:01.328Z,-4.37
2018-02-24T07:29:11.325Z,-4.38
2018-02-24T07:30:21.310Z,-4.37
2018-02-24T07:31:31.301Z,-4.31
2018-02-24T07:32:41.017Z,-4.31
2018-02-24T07:33:50.742Z,-4.3
2018-02-24T07:35:00.733Z,-4.16
2018-02-24T07:36:10.731Z,-4.2
2018-02-24T07:37:20.722Z,-4.17
2018-02-24T07:38:30.450Z,-4.16
2018-02-24T07:39:40.176Z,-4.14
2018-02-24T07:40:50.166Z,-4.09
2018-02-24T07:42:00.154Z,-3.96
2018-02-24T07:43:09.879Z,-3.98
2018-02-24T07:44:19.867Z,-4.02
2018-02-24T07:45:29.694Z,-3.84
2018-02-24T07:46:39.421Z,-3.81
2018-02-24T07:47:49.405Z,-3.9
2018-02-24T07:48:59.385Z,-3.8
2018-02-24T07:50:08.836Z,-3.84
2018-02-24T07:51:18.561Z,-3.81
2018-02-24T07:52:28.288Z,-3.71
2018-02-24T07:53:38.274Z,-3.62
2018-02-24T07:54:48.263Z,-3.55
2018-02-24T07:55:57.984Z,-3.47
2018-02-24T07:57:07.963Z,-3.48
2018-02-24T07:58:17.947Z,-3.44
2018-02-24T07:59:28.021Z,-3.4
2018-02-24T08:00:37.761Z,-3.37
2018-02-24T08:01:47.491Z,-3.33
2018-02-24T08:02:57.490Z,-3.3
2018-02-24T08:04:07.485Z,-3.37
2018-02-24T08:05:17.481Z,-3.37
2018-02-24T08:06:27.210Z,-3.25
2018-02-24T08:07:37.201Z,-3.25
2018-02-24T08:08:47.199Z,-3.29
2018-02-24T08:09:57.192Z,-3.26
2018-02-24T08:11:07.187Z,-3.27
2018-02-24T08:12:17.203Z,-3.23
2018-02-24T08:13:26.931Z,-3.27
2018-02-24T08:14:37.030Z,-3.29
2018-02-24T08:15:47.017Z,-3.27
2018-02-24T08:16:57.008Z,-3.15
2018-02-24T08:18:06.731Z,-3.2
2018-02-24T08:19:16.726Z,-3.19
2018-02-24T08:20:26.451Z,-3.08
2018-02-24T08:21:36.451Z,-3.05
2018-02-24T08:22:46.169Z,-3.12
2018-02-24T08:23:55.892Z,-3.02
2018-02-24T08:25:05.088Z,-2.98
2018-02-24T08:26:14.822Z,-3.02
2018-02-24T08:27:24.583Z,-2.99
2018-02-24T08:28:34.580Z,-3.01
2018-02-24T08:29:44.580Z,-3.01
2018-02-24T08:30:54.577Z,-3.11
2018-02-24T08:32:04.312Z,-3.11
2018-02-24T08:33:14.039Z,-3.12
2018-02-24T08:34:23.768Z,-3.3
2018-02-24T08:35:33.770Z,-3.37
2018-02-24T08:36:43.496Z,-3.15
2018-02-24T08:37:53.484Z,-3.26
2018-02-24T08:39:03.208Z,-3.37
2018-02-24T08:40:13.205Z,-3.4
2018-02-24T08:41:23.195Z,-3.38
2018-02-24T08:42:33.202Z,-3.38
2018-02-24T08:43:43.194Z,-3.44
2018-02-24T08:44:52.920Z,-3.44
2018-02-24T08:46:02.642Z,-3.44
2018-02-24T08:47:12.097Z,-3.43
2018-02-24T08:48:22.087Z,-3.4
2018-02-24T08:49:31.807Z,-3.41
2018-02-24T08:50:41.805Z,-3.43
2018-02-24T08:51:51.795Z,-3.43
2018-02-24T08:53:01.792Z,-3.46
2018-02-24T08:54:11.780Z,-3.46
2018-02-24T08:55:21.774Z,-3.47
2018-02-24T08:56:31.502Z,-3.48
2018-02-24T08:57:41.495Z,-3.37
2018-02-24T08:58:50.983Z,-3.36
2018-02-24T09:00:01.026Z,-3.44
2018-02-24T09:01:10.756Z,-3.38
2018-02-24T09:02:20.756Z,-3.43
2018-02-24T09:03:30.747Z,-3.4
2018-02-24T09:04:40.200Z,-3.43
2018-02-24T09:05:50.198Z,-3.37
2018-02-24T09:06:59.652Z,-3.44
2018-02-24T09:08:09.374Z,-3.41
2018-02-24T09:09:19.115Z,-3.38
2018-02-24T09:10:29.104Z,-3.38
2018-02-24T09:11:38.830Z,-3.37
2018-02-24T09:12:48.815Z,-3.36
2018-02-24T09:13:58.805Z,-3.4
2018-02-24T09:15:08.527Z,-3.26
2018-02-24T09:16:18.248Z,-3.3
2018-02-24T09:17:28.228Z,-3.2
2018-02-24T09:18:37.961Z,-3.26
2018-02-24T09:19:47.962Z,-3.15
2018-02-24T09:20:57.947Z,-3.19
2018-02-24T09:22:07.135Z,-3.15
2018-02-24T09:23:16.862Z,-3.12
2018-02-24T09:24:26.950Z,-3.07
2018-02-24T09:25:36.668Z,-3.02
2018-02-24T09:26:46.134Z,-3.02
2018-02-24T09:27:56.124Z,-3.01
2018-02-24T09:29:06.118Z,-2.93
2018-02-24T09:30:15.899Z,-2.9
2018-02-24T09:31:25.622Z,-2.8
2018-02-24T09:32:35.078Z,-2.68
2018-02-24T09:33:45.074Z,-2.63
2018-02-24T09:34:55.080Z,-2.47
2018-02-24T09:36:04.540Z,-2.4
2018-02-24T09:37:14.542Z,-2.47
2018-02-24T09:38:24.333Z,-2.34
2018-02-24T09:39:34.058Z,-2.4
2018-02-24T09:40:44.058Z,-2.37
2018-02-24T09:41:54.046Z,-2.33
2018-02-24T09:43:03.770Z,-2.39
2018-02-24T09:44:13.759Z,-2.32
2018-02-24T09:45:23.758Z,-2.29
2018-02-24T09:46:33.748Z,-2.26
2018-02-24T09:47:43.768Z,-2.17
2018-02-24T09:48:53.513Z,-2.25
2018-02-24T09:50:03.507Z,-2.2
2018-02-24T09:51:13.499Z,-2.26
2018-02-24T09:52:23.505Z,-2.23
2018-02-24T09:53:33.499Z,-2.23
2018-02-24T09:54:43.489Z,-2.18
2018-02-24T09:55:53.492Z,-2.17
2018-02-24T09:57:02.950Z,-2.26
2018-02-24T09:58:12.678Z,-2.18
2018-02-24T09:59:22.668Z,-2.15
2018-02-24T10:00:32.400Z,-2.28
2018-02-24T10:01:42.393Z,-2.29
2018-02-24T10:02:52.136Z,-2.29
2018-02-24T10:04:02.137Z,-2.32
2018-02-24T10:05:11.331Z,-2.22
2018-02-24T10:06:21.064Z,-2.25
2018-02-24T10:07:31.066Z,-2.2
2018-02-24T10:08:41.058Z,-2.15
2018-02-24T10:09:50.818Z,-2.17
2018-02-24T10:11:00.537Z,-2.18
2018-02-24T10:12:10.263Z,-2.13
2018-02-24T10:13:19.720Z,-2.04
2018-02-24T10:14:29.447Z,-2.02
2018-02-24T10:15:39.441Z,-1.96
2018-02-24T10:16:49.429Z,-1.93
2018-02-24T10:17:58.889Z,-1.99
2018-02-24T10:19:08.621Z,-1.84
2018-02-24T10:20:18.622Z,-1.9
2018-02-24T10:21:28.618Z,-1.78
2018-02-24T10:22:38.347Z,-1.93
2018-02-24T10:23:47.807Z,-1.81
2018-02-24T10:24:58.009Z,-1.82
2018-02-24T10:26:08.209Z,-1.89
2018-02-24T10:27:18.205Z,-1.79
2018-02-24T10:28:28.194Z,-1.79
2018-02-24T10:29:37.925Z,-1.79
2018-02-24T10:30:47.658Z,-1.74
2018-02-24T10:31:57.665Z,-1.82
2018-02-24T10:33:07.655Z,-1.72
2018-02-24T10:34:17.652Z,-1.64
2018-02-24T10:35:27.106Z,-1.66
2018-02-24T10:36:36.837Z,-1.68
2018-02-24T10:37:46.297Z,-1.63
2018-02-24T10:38:56.290Z,-1.5
2018-02-24T10:40:06.380Z,-1.45
2018-02-24T10:41:16.373Z,-1.57
2018-02-24T10:42:26.102Z,-1.43
2018-02-24T10:43:35.562Z,-1.35
2018-02-24T10:44:45.558Z,-1.36
2018-02-24T10:45:55.558Z,-1.38
2018-02-24T10:47:05.578Z,-1.22
2018-02-24T10:48:15.581Z,-1.14
2018-02-24T10:49:25.316Z,-1.01
2018-02-24T10:50:35.314Z,-0.8
2018-02-24T10:51:45.318Z,-0.74
2018-02-24T10:52:55.315Z,-0.7
2018-02-24T10:54:05.044Z,-0.74
2018-02-24T10:55:14.766Z,-0.7
2018-02-24T10:56:24.228Z,-0.59
2018-02-24T10:57:34.346Z,-0.54
2018-02-24T10:58:44.072Z,-0.62
2018-02-24T10:59:54.072Z,-0.59
2018-02-24T11:01:03.549Z,-0.51
2018-02-24T11:02:13.541Z,-0.42
2018-02-24T11:03:23.267Z,-0.41
2018-02-24T11:04:32.995Z,-0.41
2018-02-24T11:05:42.731Z,-0.38
2018-02-24T11:06:52.523Z,-0.36
2018-02-24T11:08:02.250Z,-0.45
2018-02-24T11:09:11.976Z,-0.49
2018-02-24T11:10:21.710Z,-0.39
2018-02-24T11:11:31.496Z,-0.35
2018-02-24T11:12:41.494Z,-0.44
2018-02-24T11:13:51.219Z,-0.44
2018-02-24T11:15:01.211Z,-0.35
2018-02-24T11:16:11.204Z,-0.36
2018-02-24T11:17:20.930Z,-0.39
2018-02-24T11:18:30.931Z,-0.42
2018-02-24T11:19:40.927Z,-0.38
2018-02-24T11:20:50.922Z,-0.42
2018-02-24T11:22:00.914Z,-0.38
2018-02-24T11:23:10.649Z,-0.28
2018-02-24T11:24:20.643Z,-0.3
2018-02-24T11:25:30.102Z,-0.28
2018-02-24T11:26:39.930Z,-0.28
2018-02-24T11:27:49.920Z,-0.31
2018-02-24T11:28:59.645Z,-0.3
2018-02-24T11:30:09.738Z,-0.3
2018-02-24T11:31:19.309Z,-0.41
2018-02-24T11:32:29.310Z,-0.38
2018-02-24T11:33:39.301Z,-0.39
2018-02-24T11:34:49.033Z,-0.44
2018-02-24T11:35:59.029Z,-0.38
2018-02-24T11:37:08.761Z,-0.41
2018-02-24T11:38:18.489Z,-0.42
2018-02-24T11:39:28.215Z,-0.36
2018-02-24T11:40:37.141Z,-0.38
2018-02-24T11:41:47.130Z,-0.39
2018-02-24T11:42:56.854Z,-0.38
2018-02-24T11:44:06.314Z,-0.38
2018-02-24T11:45:16.037Z,-0.31
2018-02-24T11:46:26.033Z,-0.31
2018-02-24T11:47:36.077Z,-0.13
2018-02-24T11:48:45.803Z,-0.18
2018-02-24T11:49:55.802Z,-0.17
2018-02-24T11:51:05.533Z,-0.21
2018-02-24T11:52:15.001Z,-0.2
2018-02-24T11:53:24.992Z,-0.17
2018-02-24T11:54:34.988Z,-0.09
2018-02-24T11:55:45.050Z,-0.06
2018-02-24T11:56:54.517Z,-0.03
2018-02-24T11:58:04.508Z,-0.03
2018-02-24T11:59:14.504Z,0.02
2018-02-24T12:00:24.501Z,0
2018-02-24T12:01:34.289Z,0
2018-02-24T12:02:43.756Z,0.05
2018-02-24T12:03:53.484Z,0.13
2018-02-24T12:05:03.485Z,0.01
2018-02-24T12:06:13.210Z,0.06
2018-02-24T12:07:23.236Z,0.01
2018-02-24T12:08:33.239Z,0
2018-02-24T12:09:42.975Z,0.02
2018-02-24T12:10:52.996Z,0.01
2018-02-24T12:12:02.725Z,0.11
2018-02-24T12:13:12.722Z,0.05
2018-02-24T12:14:22.726Z,-0.02
2018-02-24T12:15:32.460Z,-0.03
2018-02-24T12:16:42.457Z,0.13
2018-02-24T12:17:52.456Z,0
2018-02-24T12:19:02.283Z,0.02
2018-02-24T12:20:12.017Z,0.13
2018-02-24T12:21:22.015Z,0.12
2018-02-24T12:22:31.738Z,0.12
2018-02-24T12:23:41.730Z,0.06
2018-02-24T12:24:51.459Z,0.09
2018-02-24T12:26:01.191Z,0.16
2018-02-24T12:27:10.392Z,0.18
2018-02-24T12:28:20.124Z,0.15
2018-02-24T12:29:29.589Z,0.26
2018-02-24T12:30:39.593Z,0.24
2018-02-24T12:31:49.321Z,0.3
2018-02-24T12:32:59.382Z,0.29
2018-02-24T12:34:09.120Z,0.29
2018-02-24T12:35:19.113Z,0.2
2018-02-24T12:36:29.115Z,0.24
2018-02-24T12:37:39.111Z,0.26
2018-02-24T12:38:49.115Z,0.33
2018-02-24T12:39:59.115Z,0.2
2018-02-24T12:41:08.583Z,0.06
2018-02-24T12:42:18.314Z,-0.06
2018-02-24T12:43:28.312Z,-0.03
2018-02-24T12:44:38.042Z,-0.06
2018-02-24T12:45:48.038Z,-0.28
2018-02-24T12:46:57.768Z,-0.23
2018-02-24T12:48:07.768Z,-0.35
2018-02-24T12:49:17.515Z,-0.49
2018-02-24T12:50:27.286Z,-0.45
2018-02-24T12:51:36.753Z,-0.69
2018-02-24T12:52:46.754Z,-0.77
2018-02-24T12:53:56.752Z,-0.99
2018-02-24T12:55:06.211Z,-1
2018-02-24T12:56:16.210Z,-1.09
2018-02-24T12:57:25.938Z,-1.11
2018-02-24T12:58:35.672Z,-1.17
2018-02-24T12:59:45.665Z,-1.3
2018-02-24T13:00:55.400Z,-1.3
2018-02-24T13:02:05.405Z,-1.3
2018-02-24T13:03:15.405Z,-1.46
2018-02-24T13:04:25.140Z,-1.51
2018-02-24T13:05:34.604Z,-1.46
2018-02-24T13:06:44.591Z,-1.51
2018-02-24T13:07:54.054Z,-1.58
2018-02-24T13:09:03.828Z,-1.6
2018-02-24T13:10:13.548Z,-1.6
2018-02-24T13:11:23.351Z,-1.74
2018-02-24T13:12:33.045Z,-1.66
2018-02-24T13:13:43.039Z,-1.69
2018-02-24T13:14:53.035Z,-1.68
2018-02-24T13:16:03.077Z,-1.63
2018-02-24T13:17:12.811Z,-1.64
2018-02-24T13:18:22.535Z,-1.53
2018-02-24T13:19:32.261Z,-1.43
2018-02-24T13:20:42.255Z,-1.4
2018-02-24T13:21:52.251Z,-1.33
2018-02-24T13:23:01.714Z,-1.38
2018-02-24T13:24:11.712Z,-1.25
2018-02-24T13:25:21.723Z,-1.3
2018-02-24T13:26:31.918Z,-1.21
2018-02-24T13:27:41.918Z,-1.25
2018-02-24T13:28:51.923Z,-1.33
2018-02-24T13:30:01.915Z,-1.4
2018-02-24T13:31:11.918Z,-1.43
2018-02-24T13:32:21.164Z,-1.43
2018-02-24T13:33:30.629Z,-1.45
2018-02-24T13:34:40.358Z,-1.5
2018-02-24T13:35:50.350Z,-1.53
2018-02-24T13:37:00.348Z,-1.57
2018-02-24T13:38:10.342Z,-1.64
2018-02-24T13:39:19.804Z,-1.53
2018-02-24T13:40:29.537Z,-1.61
2018-02-24T13:41:39.530Z,-1.63
2018-02-24T13:42:49.521Z,-1.58
2018-02-24T13:43:59.520Z,-1.68
2018-02-24T13:45:09.516Z,-1.53
2018-02-24T13:46:19.254Z,-1.48
2018-02-24T13:47:29.248Z,-1.57
2018-02-24T13:48:39.239Z,-1.51
2018-02-24T13:49:48.964Z,-1.46
2018-02-24T13:50:58.957Z,-1.42
2018-02-24T13:52:08.426Z,-1.42
2018-02-24T13:53:18.429Z,-1.46
2018-02-24T13:54:28.154Z,-1.39
2018-02-24T13:55:38.145Z,-1.42
2018-02-24T13:56:47.872Z,-1.45
2018-02-24T13:57:57.865Z,-1.42
2018-02-24T13:59:07.324Z,-1.39
2018-02-24T14:00:17.052Z,-1.39
2018-02-24T14:01:27.046Z,-1.4
2018-02-24T14:02:37.041Z,-1.39
2018-02-24T14:03:47.081Z,-1.42
2018-02-24T14:04:56.810Z,-1.35
2018-02-24T14:06:06.804Z,-1.32
2018-02-24T14:07:16.531Z,-1.33
2018-02-24T14:08:26.267Z,-1.32
2018-02-24T14:09:36.089Z,-1.38
2018-02-24T14:10:46.090Z,-1.4
2018-02-24T14:11:55.818Z,-1.42
2018-02-24T14:13:05.597Z,-1.38
2018-02-24T14:14:15.645Z,-1.3
2018-02-24T14:15:25.939Z,-1.33
2018-02-24T14:16:35.663Z,-1.43
2018-02-24T14:17:45.660Z,-1.45
2018-02-24T14:18:55.116Z,-1.38
2018-02-24T14:20:04.847Z,-1.45
2018-02-24T14:21:14.856Z,-1.48
2018-02-24T14:22:24.862Z,-1.46
2018-02-24T14:23:34.934Z,-1.43
2018-02-24T14:24:44.932Z,-1.48
2018-02-24T14:25:54.923Z,-1.51
2018-02-24T14:27:04.943Z,-1.48
2018-02-24T14:28:14.683Z,-1.5
2018-02-24T14:29:24.453Z,-1.46
2018-02-24T14:30:34.467Z,-1.46
2018-02-24T14:31:44.472Z,-1.5
2018-02-24T14:32:54.470Z,-1.48
2018-02-24T14:34:04.198Z,-1.43
2018-02-24T14:35:13.932Z,-1.48
2018-02-24T14:36:23.924Z,-1.48
2018-02-24T14:37:33.919Z,-1.4
2018-02-24T14:38:43.653Z,-1.43
2018-02-24T14:39:53.467Z,-1.48
2018-02-24T14:41:03.242Z,-1.56
2018-02-24T14:42:12.978Z,-1.57
2018-02-24T14:43:22.980Z,-1.51
2018-02-24T14:44:32.719Z,-1.5
2018-02-24T14:45:42.714Z,-1.51
2018-02-24T14:46:52.439Z,-1.51
2018-02-24T14:48:02.445Z,-1.53
2018-02-24T14:49:12.448Z,-1.54
2018-02-24T14:50:22.546Z,-1.6
2018-02-24T14:51:32.535Z,-1.6
2018-02-24T14:52:41.999Z,-1.71
2018-02-24T14:53:51.726Z,-1.63
2018-02-24T14:55:01.718Z,-1.63
2018-02-24T14:56:11.450Z,-1.69
2018-02-24T14:57:21.186Z,-1.6
2018-02-24T14:58:30.938Z,-1.68
2018-02-24T14:59:40.946Z,-1.6
2018-02-24T15:00:50.668Z,-1.56
2018-02-24T15:02:00.670Z,-1.48
2018-02-24T15:03:10.419Z,-1.45
2018-02-24T15:04:20.424Z,-1.4
2018-02-24T15:05:30.311Z,-1.42
2018-02-24T15:06:40.379Z,-1.39
2018-02-24T15:07:50.379Z,-1.38